Nogales, AZ

9:53 AM MST on February 14, 2016 (GMT -0700)
Campana Plaza, I-19 & Mariposa | | Change Station
CLOSE
Current Station
Personal Weather Station
Location: Nogales, AZ
Elevation: 3815 ft
Nearby Weather Stations

Elev 3815 ft 31.36 °N, 110.95 °W | Updated 47 seconds ago

Clear
Clear
60.8 °F
Feels Like 60.8 °F
N
0.0
Wind Variable Wind from North
Gusts 0.0 mph

Today
High -- | Low -- °F
--% Chance of Precip.
Yesterday
High -- | Low -- °F
Precip. -- in
Pressure 30.00 in
Visibility 10.0 miles
Clouds Clear
Dew Point 11 °F
Humidity 14%
Rainfall 0.00 in
Snow Depth Not available.
7:06 AM 6:09 PM
Waxing Crescent, 43% visible
METAR KOLS 141554Z AUTO 00000KT 10SM CLR 10/M06 A3010 RMK AO2 SLP159 T01001061
Pressure 30.00 in
Visibility 10.0 miles
Clouds Clear
Dew Point 11 °F
Humidity 14%
Rainfall 0.00 in
Snow Depth Not available.
7:06 AM 6:09 PM
Waxing Crescent, 43% visible
METAR KOLS 141554Z AUTO 00000KT 10SM CLR 10/M06 A3010 RMK AO2 SLP159 T01001061

10-Day Weather Forecast

Almanac

Astronomy

Feb. 14, 2016 Rise Set
Actual Time
Civil Twilight
Nautical Twilight
Astronomical Twilight
Moon
Length of Visible Light
Length of Day
Tomorrow will be .
, % of the Moon is Illuminated

Today's Extremes

State Highs State Lows

Community

WunderPhotos

Upload Photos

1,892,837 photos uploaded!

WunderBlog® & News

Nearby

Air Quality

  Air Quality AQ Index Pollutant
Not available.

Snow Depth

Station Depth Elevation

Earthquake Activity

City Distance Mag. Time & Date
Minimum magnitude displayed is 2.5.

Coastal Water Temperatures

Place Temperature

Stations

Nearby Weather Stations

Station Location Temp. Windchill Dew Point Humidity Wind Precip. Elev Updated Type
                   

Watches & Warnings

There are currently no watches in effect.